Aviation Digital Data Service (ADDS)

Output produced by METARs form (0135 UTC 14 May 2021)
found at http://aviationweather.gov/metar/data/
 
KJQF 140055Z 00000KT 10SM CLR 13/06 A3025